createdAt,value
2022-09-06T00:00:10.430Z,18.90
2022-09-06T00:02:42.164Z,18.80
2022-09-06T00:05:12.238Z,18.70
2022-09-06T00:07:40.739Z,18.70
2022-09-06T00:10:10.193Z,18.60
2022-09-06T00:12:38.948Z,18.50
2022-09-06T00:15:09.527Z,18.40
2022-09-06T00:17:37.776Z,18.40
2022-09-06T00:20:09.106Z,18.50
2022-09-06T00:22:37.487Z,18.40
2022-09-06T00:25:06.534Z,18.40
2022-09-06T00:27:35.418Z,18.40
2022-09-06T00:30:04.885Z,18.30
2022-09-06T00:32:34.477Z,18.30
2022-09-06T00:35:02.691Z,18.20
2022-09-06T00:37:30.870Z,18.30
2022-09-06T00:39:59.125Z,18.20
2022-09-06T00:42:27.390Z,18.30
2022-09-06T00:44:55.775Z,18.20
2022-09-06T00:47:24.013Z,18.20
2022-09-06T00:49:56.082Z,18.10
2022-09-06T00:52:25.399Z,18.10
2022-09-06T00:54:54.891Z,18.10
2022-09-06T00:57:27.001Z,18.00
2022-09-06T00:59:56.761Z,18.00
2022-09-06T01:02:25.263Z,18.00
2022-09-06T01:04:55.848Z,18.00
2022-09-06T01:07:33.172Z,18.00
2022-09-06T01:10:22.799Z,18.00
2022-09-06T01:13:01.595Z,18.00
2022-09-06T01:15:37.248Z,18.00
2022-09-06T01:18:19.959Z,18.00
2022-09-06T01:21:14.681Z,17.90
2022-09-06T01:24:17.493Z,17.80
2022-09-06T01:27:17.011Z,17.90
2022-09-06T01:29:50.208Z,17.90
2022-09-06T01:32:26.295Z,17.80
2022-09-06T01:35:03.670Z,17.80
2022-09-06T01:37:32.063Z,17.80
2022-09-06T01:40:00.308Z,17.80
2022-09-06T01:42:31.632Z,17.60
2022-09-06T01:45:03.500Z,17.70
2022-09-06T01:47:40.391Z,17.60
2022-09-06T01:50:47.119Z,17.70
2022-09-06T01:53:31.058Z,17.60
2022-09-06T01:56:06.276Z,17.60
2022-09-06T01:58:54.824Z,17.70
2022-09-06T02:01:30.913Z,17.60
2022-09-06T02:04:08.172Z,17.60
2022-09-06T02:06:42.514Z,17.60
2022-09-06T02:09:16.064Z,17.60
2022-09-06T02:11:49.682Z,17.60
2022-09-06T02:14:21.820Z,17.60
2022-09-06T02:16:54.863Z,17.60
2022-09-06T02:19:32.695Z,17.60
2022-09-06T02:22:04.414Z,17.50
2022-09-06T02:24:34.619Z,17.60
2022-09-06T02:27:02.872Z,17.50
2022-09-06T02:29:31.130Z,17.50
2022-09-06T02:32:05.551Z,17.50
2022-09-06T02:34:33.978Z,17.40
2022-09-06T02:37:02.516Z,17.40
2022-09-06T02:39:30.737Z,17.40
2022-09-06T02:41:59.819Z,17.40
2022-09-06T02:44:28.011Z,17.40
2022-09-06T02:46:57.295Z,17.30
2022-09-06T02:49:27.085Z,17.30
2022-09-06T02:51:55.255Z,17.30
2022-09-06T02:54:23.462Z,17.30
2022-09-06T02:56:52.389Z,17.30
2022-09-06T02:59:21.006Z,17.30
2022-09-06T03:01:49.208Z,17.30
2022-09-06T03:04:17.418Z,17.30
2022-09-06T03:06:47.009Z,17.30
2022-09-06T03:09:15.224Z,17.30
2022-09-06T03:11:43.742Z,17.30
2022-09-06T03:14:11.952Z,17.20
2022-09-06T03:16:40.198Z,17.30
2022-09-06T03:19:08.425Z,17.20
2022-09-06T03:21:36.588Z,17.20
2022-09-06T03:24:06.420Z,17.20
2022-09-06T03:26:34.644Z,17.20
2022-09-06T03:29:02.816Z,17.20
2022-09-06T03:31:31.140Z,17.20
2022-09-06T03:34:00.035Z,17.20
2022-09-06T03:36:28.212Z,17.20
2022-09-06T03:38:56.392Z,17.20
2022-09-06T03:41:26.019Z,17.20
2022-09-06T03:43:54.166Z,17.20
2022-09-06T03:46:22.337Z,17.20
2022-09-06T03:48:50.972Z,17.20
2022-09-06T03:51:19.086Z,17.20
2022-09-06T03:53:47.430Z,17.20
2022-09-06T03:56:16.278Z,17.20
2022-09-06T03:58:45.805Z,17.20
2022-09-06T04:01:14.335Z,17.20
2022-09-06T04:03:42.924Z,17.20
2022-09-06T04:06:11.427Z,17.10
2022-09-06T04:08:40.392Z,17.10
2022-09-06T04:11:08.616Z,17.10
2022-09-06T04:13:37.373Z,17.10
2022-09-06T04:16:07.756Z,17.10
2022-09-06T04:18:35.969Z,17.10
2022-09-06T04:21:04.143Z,17.00
2022-09-06T04:23:36.393Z,17.00
2022-09-06T04:26:07.478Z,17.00
2022-09-06T04:28:35.604Z,16.90
2022-09-06T04:31:06.229Z,16.90
2022-09-06T04:33:35.802Z,16.80
2022-09-06T04:36:06.088Z,16.80
2022-09-06T04:38:37.592Z,16.70
2022-09-06T04:41:06.250Z,16.70
2022-09-06T04:43:34.619Z,16.70
2022-09-06T04:46:10.375Z,16.70
2022-09-06T04:48:38.594Z,16.60
2022-09-06T04:51:07.104Z,16.60
2022-09-06T04:53:35.254Z,16.50
2022-09-06T04:56:03.898Z,16.50
2022-09-06T04:58:32.166Z,16.50
2022-09-06T05:01:00.397Z,16.50
2022-09-06T05:03:30.076Z,16.50
2022-09-06T05:06:09.539Z,16.50
2022-09-06T05:08:39.262Z,16.40
2022-09-06T05:11:08.250Z,16.40
2022-09-06T05:13:36.798Z,16.40
2022-09-06T05:16:06.859Z,16.40
2022-09-06T05:18:36.643Z,16.40
2022-09-06T05:21:05.263Z,16.40
2022-09-06T05:23:33.372Z,16.40
2022-09-06T05:26:01.555Z,16.40
2022-09-06T05:28:29.860Z,16.50
2022-09-06T05:31:07.602Z,16.50
2022-09-06T05:33:37.567Z,16.50
2022-09-06T05:36:07.128Z,16.50
2022-09-06T05:38:35.320Z,16.50
2022-09-06T05:41:03.574Z,16.60
2022-09-06T05:43:31.839Z,16.60
2022-09-06T05:46:00.393Z,16.60
2022-09-06T05:48:31.219Z,16.60
2022-09-06T05:51:04.735Z,16.70
2022-09-06T05:53:35.972Z,16.70
2022-09-06T05:56:05.446Z,16.70
2022-09-06T05:58:33.695Z,16.70
2022-09-06T06:01:09.239Z,16.80
2022-09-06T06:03:37.598Z,16.90
2022-09-06T06:06:07.690Z,17.00
2022-09-06T06:08:36.750Z,17.00
2022-09-06T06:11:04.931Z,17.10
2022-09-06T06:13:35.006Z,17.10
2022-09-06T06:16:04.372Z,17.20
2022-09-06T06:18:32.644Z,17.30
2022-09-06T06:21:13.910Z,17.30
2022-09-06T06:23:43.431Z,17.50
2022-09-06T06:26:13.165Z,17.60
2022-09-06T06:28:42.051Z,17.70
2022-09-06T06:31:12.109Z,17.70
2022-09-06T06:33:40.847Z,17.90
2022-09-06T06:36:21.923Z,18.00
2022-09-06T06:38:51.736Z,18.20
2022-09-06T06:41:23.839Z,18.30
2022-09-06T06:43:53.391Z,18.40
2022-09-06T06:46:23.274Z,18.50
2022-09-06T06:48:54.648Z,18.60
2022-09-06T06:51:26.583Z,18.70
2022-09-06T06:53:56.747Z,18.90
2022-09-06T06:56:27.120Z,18.90
2022-09-06T06:58:57.455Z,19.10
2022-09-06T07:01:27.837Z,19.20
2022-09-06T07:03:56.798Z,19.30
2022-09-06T07:09:18.104Z,19.50
2022-09-06T07:11:46.589Z,19.60
2022-09-06T07:14:14.732Z,19.80
2022-09-06T07:16:43.613Z,19.90
2022-09-06T07:22:05.269Z,20.10
2022-09-06T07:24:34.189Z,20.20
2022-09-06T07:29:50.676Z,20.40
2022-09-06T07:32:18.859Z,20.60
2022-09-06T07:34:47.452Z,20.70
2022-09-06T07:37:17.320Z,20.80
2022-09-06T07:39:45.662Z,20.90
2022-09-06T07:42:13.927Z,21.00
2022-09-06T07:44:42.108Z,21.10
2022-09-06T07:55:36.506Z,21.50
2022-09-06T07:58:04.757Z,21.70
2022-09-06T08:00:32.953Z,21.70
2022-09-06T08:03:01.247Z,21.80
2022-09-06T08:11:07.617Z,22.00
2022-09-06T08:13:36.032Z,22.10
2022-09-06T08:16:06.288Z,22.10
2022-09-06T08:18:35.378Z,22.10
2022-09-06T08:21:12.846Z,22.20
2022-09-06T08:23:46.327Z,22.30
2022-09-06T08:26:14.672Z,22.30
2022-09-06T08:28:42.913Z,22.40
2022-09-06T08:31:12.992Z,22.50
2022-09-06T08:33:42.225Z,22.60
2022-09-06T08:36:11.906Z,22.60
2022-09-06T08:38:40.317Z,22.70
2022-09-06T08:41:12.476Z,22.80
2022-09-06T08:43:47.655Z,22.90
2022-09-06T08:46:18.405Z,23.00
2022-09-06T08:48:46.784Z,23.20
2022-09-06T08:51:40.063Z,23.20
2022-09-06T08:54:14.703Z,23.30
2022-09-06T08:56:59.831Z,23.40
2022-09-06T08:59:29.794Z,23.40
2022-09-06T09:02:05.892Z,23.50
2022-09-06T09:04:35.861Z,23.50
2022-09-06T09:07:12.717Z,23.50
2022-09-06T09:09:42.047Z,23.50
2022-09-06T09:12:13.864Z,23.60
2022-09-06T09:14:44.320Z,23.90
2022-09-06T09:17:24.436Z,23.90
2022-09-06T09:19:52.684Z,24.00
2022-09-06T09:22:21.320Z,24.10
2022-09-06T09:24:51.848Z,24.10
2022-09-06T09:27:24.192Z,24.10
2022-09-06T09:32:50.103Z,24.40
2022-09-06T09:35:24.877Z,24.50
2022-09-06T09:38:08.101Z,24.50
2022-09-06T09:48:22.491Z,24.80
2022-09-06T10:03:34.266Z,25.40
2022-09-06T10:09:36.429Z,25.60
2022-09-06T10:22:52.208Z,25.90
2022-09-06T10:30:47.005Z,26.00
2022-09-06T10:49:36.853Z,26.30
2022-09-06T11:04:04.139Z,26.60
2022-09-06T11:06:37.959Z,26.80
2022-09-06T11:09:17.930Z,27.00
2022-09-06T11:11:51.907Z,27.00
2022-09-06T11:14:22.097Z,27.10
2022-09-06T11:16:54.727Z,27.20
2022-09-06T11:19:26.658Z,27.20
2022-09-06T11:22:26.303Z,27.40
2022-09-06T11:25:23.842Z,27.40
2022-09-06T11:27:58.130Z,27.50
2022-09-06T11:30:27.632Z,27.50
2022-09-06T11:33:10.382Z,27.60
2022-09-06T11:35:39.011Z,27.60
2022-09-06T11:38:20.556Z,27.80
2022-09-06T11:40:58.504Z,27.80
2022-09-06T11:43:48.545Z,27.80
2022-09-06T11:46:54.272Z,27.80
2022-09-06T11:49:31.884Z,27.90
2022-09-06T11:52:00.492Z,28.00
2022-09-06T11:54:39.040Z,28.10
2022-09-06T11:57:15.883Z,28.10
2022-09-06T11:59:55.016Z,28.10
2022-09-06T12:02:38.083Z,28.10
2022-09-06T12:05:17.397Z,28.30
2022-09-06T12:08:29.112Z,28.40
2022-09-06T12:11:07.519Z,28.40
2022-09-06T12:13:49.193Z,28.40
2022-09-06T12:16:18.727Z,28.50
2022-09-06T12:19:30.741Z,28.60
2022-09-06T12:21:58.997Z,28.60
2022-09-06T12:24:55.932Z,28.70
2022-09-06T12:27:27.095Z,28.50
2022-09-06T12:29:59.470Z,28.70
2022-09-06T12:32:36.615Z,28.70
2022-09-06T12:38:00.104Z,28.70
2022-09-06T12:40:32.530Z,28.80
2022-09-06T12:43:04.480Z,29.00
2022-09-06T12:45:32.976Z,28.90
2022-09-06T12:48:10.193Z,29.00
2022-09-06T12:50:40.436Z,29.00
2022-09-06T12:53:24.451Z,29.20
2022-09-06T12:56:05.553Z,29.20
2022-09-06T12:58:35.662Z,29.20
2022-09-06T13:01:12.335Z,29.40
2022-09-06T13:03:45.651Z,29.40
2022-09-06T13:06:24.461Z,29.50
2022-09-06T13:08:57.112Z,29.60
2022-09-06T13:11:29.335Z,29.50
2022-09-06T13:13:59.843Z,29.40
2022-09-06T13:16:30.860Z,29.50
2022-09-06T13:19:12.584Z,29.60
2022-09-06T13:21:42.386Z,29.60
2022-09-06T13:24:22.111Z,29.50
2022-09-06T13:26:50.534Z,29.60
2022-09-06T13:29:31.394Z,29.70
2022-09-06T13:32:03.448Z,29.90
2022-09-06T13:34:34.417Z,30.00
2022-09-06T13:37:05.153Z,30.00
2022-09-06T13:39:35.696Z,30.10
2022-09-06T13:42:07.287Z,30.10
2022-09-06T13:44:38.710Z,30.20
2022-09-06T13:47:07.627Z,30.10
2022-09-06T13:49:35.854Z,30.10
2022-09-06T13:52:05.414Z,30.00
2022-09-06T13:54:34.251Z,29.90
2022-09-06T13:57:02.833Z,29.70
2022-09-06T13:59:31.523Z,29.90
2022-09-06T14:02:04.839Z,30.00
2022-09-06T14:04:33.148Z,30.10
2022-09-06T14:07:01.720Z,30.10
2022-09-06T14:09:30.218Z,30.10
2022-09-06T14:11:58.512Z,30.20
2022-09-06T14:14:27.063Z,30.20
2022-09-06T14:16:55.276Z,30.30
2022-09-06T14:19:24.939Z,30.30
2022-09-06T14:21:53.509Z,30.20
2022-09-06T14:24:21.827Z,30.20
2022-09-06T14:26:50.087Z,30.10
2022-09-06T14:29:18.323Z,30.00
2022-09-06T14:31:48.350Z,30.00
2022-09-06T14:34:16.645Z,29.80
2022-09-06T14:36:46.364Z,29.70
2022-09-06T14:39:14.659Z,29.60
2022-09-06T14:41:42.920Z,29.50
2022-09-06T14:44:11.428Z,29.40
2022-09-06T14:46:39.748Z,29.30
2022-09-06T14:49:10.100Z,29.30
2022-09-06T14:51:39.757Z,29.30
2022-09-06T14:54:11.573Z,29.30
2022-09-06T14:56:41.966Z,29.40
2022-09-06T14:59:10.844Z,29.70
2022-09-06T15:01:40.307Z,29.90
2022-09-06T15:04:11.283Z,30.00
2022-09-06T15:06:44.822Z,30.20
2022-09-06T15:09:14.807Z,30.30
2022-09-06T15:11:44.922Z,30.40
2022-09-06T15:14:16.145Z,30.30
2022-09-06T15:16:44.637Z,30.30
2022-09-06T15:19:12.945Z,30.40
2022-09-06T15:21:42.011Z,30.30
2022-09-06T15:24:12.235Z,30.30
2022-09-06T15:26:42.816Z,30.30
2022-09-06T15:29:11.903Z,30.30
2022-09-06T15:31:41.861Z,30.30
2022-09-06T15:34:11.434Z,30.50
2022-09-06T15:36:39.635Z,30.70
2022-09-06T15:39:07.840Z,30.70
2022-09-06T15:41:39.697Z,30.70
2022-09-06T15:44:12.271Z,30.70
2022-09-06T15:46:46.090Z,30.70
2022-09-06T15:49:16.283Z,30.60
2022-09-06T15:51:44.803Z,30.50
2022-09-06T15:54:14.444Z,30.40
2022-09-06T15:56:43.144Z,30.20
2022-09-06T15:59:13.247Z,29.90
2022-09-06T16:01:41.889Z,29.70
2022-09-06T16:04:10.901Z,29.60
2022-09-06T16:06:42.457Z,29.50
2022-09-06T16:09:14.064Z,29.50
2022-09-06T16:11:43.191Z,29.50
2022-09-06T16:14:15.362Z,29.50
2022-09-06T16:16:44.718Z,29.50
2022-09-06T16:19:14.061Z,29.50
2022-09-06T16:21:43.721Z,29.50
2022-09-06T16:24:14.406Z,29.60
2022-09-06T16:26:46.171Z,29.50
2022-09-06T16:29:17.929Z,29.40
2022-09-06T16:31:46.758Z,29.50
2022-09-06T16:34:15.623Z,29.50
2022-09-06T16:36:43.848Z,29.50
2022-09-06T16:39:12.187Z,29.50
2022-09-06T16:41:42.886Z,29.40
2022-09-06T16:44:15.986Z,29.30
2022-09-06T16:46:45.873Z,29.30
2022-09-06T16:49:16.705Z,29.20
2022-09-06T16:51:45.326Z,29.20
2022-09-06T16:54:13.949Z,29.00
2022-09-06T16:56:42.536Z,28.90
2022-09-06T16:59:11.943Z,28.70
2022-09-06T17:01:41.928Z,28.50
2022-09-06T17:04:12.770Z,28.40
2022-09-06T17:06:44.384Z,28.30
2022-09-06T17:09:14.282Z,28.20
2022-09-06T17:11:42.740Z,28.20
2022-09-06T17:14:10.961Z,28.20
2022-09-06T17:16:57.012Z,28.30
2022-09-06T17:19:26.832Z,28.30
2022-09-06T17:21:55.215Z,28.20
2022-09-06T17:24:23.492Z,28.00
2022-09-06T17:26:51.724Z,27.90
2022-09-06T17:29:20.442Z,27.70
2022-09-06T17:31:49.538Z,27.60
2022-09-06T17:34:17.846Z,27.30
2022-09-06T17:36:47.408Z,27.20
2022-09-06T17:39:18.505Z,26.90
2022-09-06T17:41:49.824Z,26.70
2022-09-06T17:44:22.190Z,26.40
2022-09-06T17:49:39.334Z,26.10
2022-09-06T17:52:09.051Z,25.80
2022-09-06T17:54:37.280Z,25.60
2022-09-06T17:57:05.587Z,25.50
2022-09-06T17:59:35.815Z,25.30
2022-09-06T18:02:05.351Z,25.20
2022-09-06T18:04:33.745Z,25.00
2022-09-06T18:07:02.138Z,24.90
2022-09-06T18:09:31.724Z,24.70
2022-09-06T18:11:59.940Z,24.60
2022-09-06T18:14:29.072Z,24.50
2022-09-06T18:16:57.710Z,24.40
2022-09-06T18:19:27.479Z,24.20
2022-09-06T18:21:57.146Z,24.20
2022-09-06T18:24:25.499Z,24.10
2022-09-06T18:26:55.381Z,24.00
2022-09-06T18:29:23.753Z,23.90
2022-09-06T18:31:53.535Z,23.80
2022-09-06T18:34:22.107Z,23.70
2022-09-06T18:36:50.291Z,23.60
2022-09-06T18:39:19.110Z,23.60
2022-09-06T18:42:06.851Z,23.50
2022-09-06T19:10:25.141Z,22.60
2022-09-06T19:12:54.123Z,22.50
2022-09-06T19:15:22.788Z,22.40
2022-09-06T19:17:52.405Z,22.30
2022-09-06T19:20:21.726Z,22.30
2022-09-06T19:22:51.311Z,22.20
2022-09-06T19:25:19.903Z,22.10
2022-09-06T19:27:49.596Z,22.10
2022-09-06T19:45:25.783Z,21.80
2022-09-06T19:48:44.965Z,21.70
2022-09-06T19:51:14.536Z,21.60
2022-09-06T19:53:44.222Z,21.60
2022-09-06T19:56:13.452Z,21.50
2022-09-06T19:58:43.642Z,21.50
2022-09-06T20:01:17.996Z,21.50
2022-09-06T20:03:46.433Z,21.50
2022-09-06T20:06:14.663Z,21.50
2022-09-06T20:08:43.083Z,21.50
2022-09-06T20:11:13.055Z,21.50
2022-09-06T20:13:42.763Z,21.60
2022-09-06T20:16:14.936Z,21.60
2022-09-06T20:18:43.505Z,21.60
2022-09-06T20:21:13.806Z,21.70
2022-09-06T20:23:42.157Z,21.70
2022-09-06T20:26:13.476Z,21.80
2022-09-06T20:28:42.012Z,21.80
2022-09-06T20:31:13.052Z,21.80
2022-09-06T20:33:43.755Z,21.80
2022-09-06T20:36:15.339Z,21.90
2022-09-06T20:38:44.913Z,21.80
2022-09-06T20:41:15.384Z,21.90
2022-09-06T20:43:44.335Z,22.00
2022-09-06T20:46:15.421Z,22.00
2022-09-06T20:48:45.396Z,22.00
2022-09-06T20:51:15.914Z,22.10
2022-09-06T20:53:44.076Z,22.10
2022-09-06T20:56:13.951Z,22.10
2022-09-06T20:58:42.853Z,22.20
2022-09-06T21:01:16.567Z,22.20
2022-09-06T21:03:44.875Z,22.20
2022-09-06T21:06:13.392Z,22.20
2022-09-06T21:08:42.998Z,22.30
2022-09-06T21:11:11.888Z,22.30
2022-09-06T21:13:40.796Z,22.20
2022-09-06T21:16:09.174Z,22.20
2022-09-06T21:18:39.419Z,22.20
2022-09-06T21:21:08.900Z,22.20
2022-09-06T21:23:38.501Z,22.10
2022-09-06T21:26:09.943Z,21.90
2022-09-06T21:28:40.647Z,21.60
2022-09-06T21:31:11.771Z,21.20
2022-09-06T21:33:43.537Z,20.60
2022-09-06T21:36:13.684Z,20.20
2022-09-06T21:38:43.870Z,19.90
2022-09-06T21:41:13.472Z,19.70
2022-09-06T21:43:42.484Z,19.50
2022-09-06T21:46:12.477Z,19.40
2022-09-06T21:48:43.952Z,19.40
2022-09-06T21:51:14.163Z,19.40
2022-09-06T21:53:43.818Z,19.40
2022-09-06T21:56:12.504Z,19.30
2022-09-06T21:58:41.356Z,19.20
2022-09-06T22:01:09.706Z,19.30
2022-09-06T22:03:40.251Z,19.20
2022-09-06T22:06:14.348Z,19.20
2022-09-06T22:08:43.729Z,19.20
2022-09-06T22:11:13.949Z,19.20
2022-09-06T22:13:42.918Z,19.20
2022-09-06T22:16:11.882Z,19.20
2022-09-06T22:18:40.247Z,19.20
2022-09-06T22:21:10.619Z,19.30
2022-09-06T22:23:40.890Z,19.30
2022-09-06T22:26:10.939Z,19.30
2022-09-06T22:28:40.276Z,19.40
2022-09-06T22:31:09.327Z,19.40
2022-09-06T22:33:37.755Z,19.40
2022-09-06T22:36:07.388Z,19.40
2022-09-06T22:38:35.656Z,19.40
2022-09-06T22:41:05.427Z,19.30
2022-09-06T22:43:33.750Z,19.30
2022-09-06T22:46:06.768Z,19.30
2022-09-06T22:48:35.384Z,19.30
2022-09-06T22:51:04.675Z,19.30
2022-09-06T22:53:33.517Z,19.20
2022-09-06T22:56:02.383Z,19.30
2022-09-06T22:58:32.155Z,19.20
2022-09-06T23:01:07.549Z,19.20
2022-09-06T23:03:36.119Z,19.10
2022-09-06T23:06:04.740Z,19.00
2022-09-06T23:08:33.774Z,18.90
2022-09-06T23:11:06.818Z,18.90
2022-09-06T23:13:36.967Z,18.80
2022-09-06T23:16:06.892Z,18.80
2022-09-06T23:18:35.345Z,18.70
2022-09-06T23:21:08.054Z,18.70
2022-09-06T23:23:36.896Z,18.70
2022-09-06T23:26:06.908Z,18.60
2022-09-06T23:28:36.829Z,18.60
2022-09-06T23:31:05.883Z,18.50
2022-09-06T23:33:37.355Z,18.50
2022-09-06T23:36:07.300Z,18.50
2022-09-06T23:38:36.525Z,18.50
2022-09-06T23:41:05.545Z,18.50
2022-09-06T23:43:34.069Z,18.60
2022-09-06T23:46:03.788Z,18.60
2022-09-06T23:48:32.223Z,18.60
2022-09-06T23:51:00.829Z,18.60
2022-09-06T23:53:29.529Z,18.70
2022-09-06T23:55:57.709Z,18.70
2022-09-06T23:58:26.244Z,18.80
